createdAt,value
2022-08-07T00:00:18.559Z,63.32
2022-08-07T00:01:44.163Z,63.48
2022-08-07T00:02:40.629Z,63.74
2022-08-07T00:03:16.742Z,63.61
2022-08-07T00:04:15.842Z,63.67
2022-08-07T00:05:15.788Z,63.73
2022-08-07T00:06:15.739Z,63.73
2022-08-07T00:07:15.821Z,63.83
2022-08-07T00:08:15.701Z,63.93
2022-08-07T00:09:16.204Z,63.89
2022-08-07T00:10:27.256Z,63.94
2022-08-07T00:11:19.967Z,63.86
2022-08-07T00:12:19.345Z,63.88
2022-08-07T00:13:25.749Z,63.99
2022-08-07T00:14:16.613Z,64.10
2022-08-07T00:15:15.624Z,64.11
2022-08-07T00:16:17.535Z,64.20
2022-08-07T00:17:16.600Z,64.20
2022-08-07T00:18:19.850Z,64.23
2022-08-07T00:19:21.763Z,64.27
2022-08-07T00:20:29.971Z,64.36
2022-08-07T00:21:56.611Z,64.46
2022-08-07T00:22:24.649Z,64.53
2022-08-07T00:23:17.081Z,64.47
2022-08-07T00:24:15.495Z,64.60
2022-08-07T00:25:16.622Z,64.58
2022-08-07T00:26:31.166Z,64.51
2022-08-07T00:27:16.450Z,64.69
2022-08-07T00:28:15.514Z,64.76
2022-08-07T00:29:15.440Z,64.81
2022-08-07T00:30:26.646Z,64.81
2022-08-07T00:31:16.480Z,64.78
2022-08-07T00:32:15.401Z,64.85
2022-08-07T00:33:15.401Z,64.95
2022-08-07T00:34:15.374Z,65.08
2022-08-07T00:35:16.646Z,64.93
2022-08-07T00:36:15.357Z,64.95
2022-08-07T00:37:15.333Z,64.87
2022-08-07T00:38:15.351Z,64.97
2022-08-07T00:39:16.559Z,64.71
2022-08-07T00:40:15.312Z,64.79
2022-08-07T00:41:16.292Z,64.79
2022-08-07T00:42:15.305Z,64.73
2022-08-07T00:43:59.702Z,64.80
2022-08-07T00:44:16.272Z,65.06
2022-08-07T00:45:16.336Z,65.36
2022-08-07T00:46:15.246Z,65.73
2022-08-07T00:47:15.648Z,65.83
2022-08-07T00:48:16.232Z,66.07
2022-08-07T00:49:24.761Z,66.33
2022-08-07T00:50:19.097Z,66.42
2022-08-07T00:51:16.175Z,66.40
2022-08-07T00:52:19.834Z,66.43
2022-08-07T00:53:16.154Z,66.46
2022-08-07T00:54:15.165Z,66.50
2022-08-07T00:55:17.376Z,66.65
2022-08-07T00:56:16.124Z,66.65
2022-08-07T00:57:15.113Z,66.70
2022-08-07T00:58:15.099Z,66.61
2022-08-07T00:59:15.107Z,66.15
2022-08-07T01:00:15.075Z,65.85
2022-08-07T01:01:15.170Z,65.79
2022-08-07T01:02:29.273Z,65.57
2022-08-07T01:03:16.047Z,65.32
2022-08-07T01:04:24.583Z,65.36
2022-08-07T01:05:18.866Z,65.46
2022-08-07T01:06:15.749Z,65.46
2022-08-07T01:07:14.997Z,65.62
2022-08-07T01:08:14.987Z,65.73
2022-08-07T01:10:04.585Z,65.81
2022-08-07T01:10:15.960Z,65.90
2022-08-07T01:12:09.881Z,66.00
2022-08-07T01:12:28.639Z,66.04
2022-08-07T01:13:16.364Z,66.08
2022-08-07T01:14:15.459Z,66.25
2022-08-07T01:15:17.668Z,66.37
2022-08-07T01:16:14.889Z,66.46
2022-08-07T01:17:15.888Z,66.53
2022-08-07T01:18:17.644Z,66.78
2022-08-07T01:19:19.139Z,66.86
2022-08-07T01:20:17.192Z,66.83
2022-08-07T01:21:22.518Z,66.95
2022-08-07T01:22:16.256Z,66.97
2022-08-07T01:23:15.814Z,67.03
2022-08-07T01:24:14.796Z,67.03
2022-08-07T01:25:54.643Z,67.01
2022-08-07T01:26:16.699Z,67.04
2022-08-07T01:27:19.514Z,67.14
2022-08-07T01:28:15.748Z,67.25
2022-08-07T01:29:14.739Z,67.12
2022-08-07T01:30:14.747Z,67.07
2022-08-07T01:31:15.398Z,67.00
2022-08-07T01:32:14.699Z,67.03
2022-08-07T01:33:14.698Z,67.14
2022-08-07T01:34:14.686Z,67.28
2022-08-07T01:35:17.194Z,67.38
2022-08-07T01:36:15.082Z,67.50
2022-08-07T01:37:14.648Z,67.46
2022-08-07T01:38:14.640Z,67.42
2022-08-07T01:39:15.673Z,67.47
2022-08-07T01:40:14.929Z,67.45
2022-08-07T01:41:14.614Z,67.47
2022-08-07T01:42:38.373Z,67.46
2022-08-07T01:43:15.569Z,67.50
2022-08-07T01:44:14.561Z,67.53
2022-08-07T01:45:18.375Z,67.66
2022-08-07T01:46:15.560Z,67.80
2022-08-07T01:48:21.162Z,67.81
2022-08-07T01:48:21.722Z,67.83
2022-08-07T01:49:15.549Z,67.80
2022-08-07T01:50:14.499Z,67.87
2022-08-07T01:52:00.987Z,67.94
2022-08-07T01:52:15.483Z,68.13
2022-08-07T01:53:21.604Z,68.09
2022-08-07T01:54:33.387Z,68.34
2022-08-07T01:55:22.527Z,68.47
2022-08-07T01:56:15.445Z,68.64
2022-08-07T01:57:24.204Z,68.68
2022-08-07T01:58:27.448Z,68.90
2022-08-07T01:59:15.737Z,68.95
2022-08-07T02:00:14.381Z,68.94
2022-08-07T02:01:25.643Z,68.95
2022-08-07T02:02:32.648Z,68.94
2022-08-07T02:03:21.177Z,68.75
2022-08-07T02:04:15.360Z,68.64
2022-08-07T02:05:15.985Z,68.78
2022-08-07T02:06:30.789Z,68.78
2022-08-07T02:07:15.315Z,68.73
2022-08-07T02:08:14.285Z,68.92
2022-08-07T02:09:33.751Z,69.05
2022-08-07T02:10:15.258Z,69.08
2022-08-07T02:11:31.039Z,69.14
2022-08-07T02:12:15.248Z,69.13
2022-08-07T02:13:14.253Z,69.15
2022-08-07T02:14:35.458Z,69.23
2022-08-07T02:15:15.193Z,69.27
2022-08-07T02:16:14.187Z,69.32
2022-08-07T02:17:16.511Z,69.42
2022-08-07T02:18:15.189Z,69.43
2022-08-07T02:20:04.629Z,69.53
2022-08-07T02:20:17.431Z,69.57
2022-08-07T02:21:16.150Z,69.65
2022-08-07T02:22:14.128Z,69.66
2022-08-07T02:23:14.153Z,69.64
2022-08-07T02:24:17.811Z,69.64
2022-08-07T02:25:18.107Z,69.63
2022-08-07T02:26:32.424Z,69.61
2022-08-07T02:27:15.072Z,69.75
2022-08-07T02:28:14.065Z,69.74
2022-08-07T02:29:15.030Z,69.75
2022-08-07T02:30:15.024Z,69.77
2022-08-07T02:31:28.243Z,69.92
2022-08-07T02:32:15.002Z,69.97
2022-08-07T02:33:13.994Z,70.02
2022-08-07T02:34:17.276Z,70.01
2022-08-07T02:35:13.974Z,70.03
2022-08-07T02:36:30.727Z,70.12
2022-08-07T02:37:14.949Z,70.15
2022-08-07T02:38:13.939Z,70.15
2022-08-07T02:39:17.318Z,70.17
2022-08-07T02:40:30.266Z,70.23
2022-08-07T02:41:14.940Z,70.33
2022-08-07T02:42:16.364Z,70.41
2022-08-07T02:43:13.878Z,70.55
2022-08-07T02:44:13.889Z,70.57
2022-08-07T02:45:58.921Z,70.71
2022-08-07T02:46:15.136Z,70.73
2022-08-07T02:47:19.540Z,70.74
2022-08-07T02:48:15.723Z,70.78
2022-08-07T02:49:29.117Z,70.73
2022-08-07T02:50:14.788Z,70.63
2022-08-07T02:51:29.046Z,70.53
2022-08-07T02:52:14.767Z,70.51
2022-08-07T02:53:13.760Z,70.53
2022-08-07T02:54:13.767Z,70.67
2022-08-07T02:55:27.554Z,70.98
2022-08-07T02:56:21.210Z,71.10
2022-08-07T02:57:14.715Z,71.28
2022-08-07T02:58:13.720Z,71.33
2022-08-07T02:59:13.709Z,71.42
2022-08-07T03:00:13.699Z,71.45
2022-08-07T03:01:18.558Z,71.54
2022-08-07T03:02:14.709Z,71.56
2022-08-07T03:03:13.829Z,71.57
2022-08-07T03:04:14.620Z,71.56
2022-08-07T03:05:20.549Z,71.52
2022-08-07T03:06:16.342Z,71.51
2022-08-07T03:07:13.602Z,71.47
2022-08-07T03:08:13.776Z,71.44
2022-08-07T03:09:13.572Z,71.43
2022-08-07T03:10:14.230Z,71.42
2022-08-07T03:11:13.544Z,71.50
2022-08-07T03:12:22.174Z,71.54
2022-08-07T03:13:14.511Z,71.53
2022-08-07T03:14:13.511Z,71.51
2022-08-07T03:15:13.514Z,71.59
2022-08-07T03:16:14.493Z,71.64
2022-08-07T03:17:13.474Z,71.68
2022-08-07T03:18:17.537Z,71.80
2022-08-07T03:19:14.454Z,71.79
2022-08-07T03:20:13.431Z,71.77
2022-08-07T03:21:13.440Z,71.71
2022-08-07T03:22:18.790Z,71.70
2022-08-07T03:23:18.879Z,71.67
2022-08-07T03:24:20.376Z,71.69
2022-08-07T03:25:14.381Z,71.66
2022-08-07T03:26:15.661Z,71.66
2022-08-07T03:27:14.354Z,71.68
2022-08-07T03:28:38.460Z,71.79
2022-08-07T03:29:14.893Z,71.69
2022-08-07T03:30:13.321Z,71.63
2022-08-07T03:31:13.320Z,71.71
2022-08-07T03:32:13.714Z,71.70
2022-08-07T03:33:13.289Z,71.82
2022-08-07T03:34:18.739Z,71.98
2022-08-07T03:35:17.597Z,72.09
2022-08-07T03:36:13.244Z,72.07
2022-08-07T03:37:13.262Z,72.04
2022-08-07T03:38:13.451Z,72.12
2022-08-07T03:39:13.345Z,72.14
2022-08-07T03:40:15.923Z,72.02
2022-08-07T03:41:13.193Z,72.07
2022-08-07T03:42:13.222Z,72.01
2022-08-07T03:43:14.376Z,72.01
2022-08-07T03:44:13.156Z,72.12
2022-08-07T03:45:30.190Z,72.12
2022-08-07T03:46:18.610Z,72.09
2022-08-07T03:47:14.687Z,72.25
2022-08-07T03:48:13.102Z,72.43
2022-08-07T03:49:13.100Z,72.54
2022-08-07T03:50:13.083Z,72.67
2022-08-07T03:51:13.085Z,72.66
2022-08-07T03:52:22.357Z,72.70
2022-08-07T03:53:14.065Z,72.64
2022-08-07T03:54:36.096Z,72.65
2022-08-07T03:55:14.027Z,72.74
2022-08-07T03:56:13.773Z,72.78
2022-08-07T03:59:05.196Z,72.76
2022-08-07T03:59:05.242Z,72.98
2022-08-07T03:59:14.141Z,73.02
2022-08-07T04:00:12.967Z,73.09
2022-08-07T04:01:13.806Z,73.04
2022-08-07T04:02:12.945Z,73.02
2022-08-07T04:03:12.950Z,73.15
2022-08-07T04:04:17.271Z,73.24
2022-08-07T04:05:12.917Z,73.26
2022-08-07T04:06:36.370Z,73.32
2022-08-07T04:07:17.362Z,73.44
2022-08-07T04:08:12.896Z,73.28
2022-08-07T04:09:15.302Z,73.37
2022-08-07T04:10:15.741Z,73.36
2022-08-07T04:12:20.659Z,73.28
2022-08-07T04:12:27.462Z,73.27
2022-08-07T04:13:15.351Z,73.40
2022-08-07T04:14:38.114Z,73.67
2022-08-07T04:15:13.796Z,73.70
2022-08-07T04:16:12.780Z,73.71
2022-08-07T04:17:19.810Z,73.76
2022-08-07T04:18:58.537Z,73.80
2022-08-07T04:19:15.352Z,73.75
2022-08-07T04:20:12.727Z,73.74
2022-08-07T04:21:12.729Z,73.74
2022-08-07T04:22:17.521Z,73.79
2022-08-07T04:23:19.223Z,73.84
2022-08-07T04:24:30.360Z,73.84
2022-08-07T04:25:13.681Z,73.89
2022-08-07T04:26:12.660Z,73.90
2022-08-07T04:27:15.280Z,73.96
2022-08-07T04:28:13.667Z,73.98
2022-08-07T04:29:12.647Z,74.02
2022-08-07T04:30:21.584Z,74.07
2022-08-07T04:31:20.190Z,74.09
2022-08-07T04:32:13.579Z,74.13
2022-08-07T04:33:15.570Z,74.17
2022-08-07T04:34:16.924Z,74.18
2022-08-07T04:35:12.557Z,74.21
2022-08-07T04:36:12.539Z,74.21
2022-08-07T04:37:20.160Z,74.35
2022-08-07T04:38:13.514Z,74.51
2022-08-07T04:39:12.590Z,74.67
2022-08-07T04:40:12.512Z,74.63
2022-08-07T04:41:13.995Z,74.74
2022-08-07T04:42:13.469Z,74.70
2022-08-07T04:43:12.459Z,74.72
2022-08-07T04:44:18.567Z,74.75
2022-08-07T04:45:13.449Z,74.82
2022-08-07T04:46:12.547Z,74.87
2022-08-07T04:47:23.529Z,74.92
2022-08-07T04:48:13.729Z,74.93
2022-08-07T04:49:17.936Z,74.85
2022-08-07T04:50:13.400Z,74.87
2022-08-07T04:51:12.387Z,74.93
2022-08-07T04:52:12.354Z,74.90
2022-08-07T04:53:27.762Z,74.88
2022-08-07T04:54:13.338Z,74.78
2022-08-07T04:55:15.317Z,74.34
2022-08-07T04:58:16.042Z,73.87
2022-08-07T04:58:16.965Z,73.72
2022-08-07T04:58:43.121Z,73.78
2022-08-07T05:00:09.838Z,73.91
2022-08-07T05:00:19.052Z,73.96
2022-08-07T05:01:13.499Z,73.78
2022-08-07T05:02:16.968Z,73.95
2022-08-07T05:03:31.144Z,74.02
2022-08-07T05:04:17.271Z,74.01
2022-08-07T05:05:53.407Z,73.91
2022-08-07T05:06:19.501Z,73.91
2022-08-07T05:07:20.420Z,73.91
2022-08-07T05:08:13.162Z,73.86
2022-08-07T05:09:12.162Z,73.86
2022-08-07T05:10:12.165Z,73.78
2022-08-07T05:11:19.353Z,73.65
2022-08-07T05:12:13.137Z,73.40
2022-08-07T05:14:52.510Z,73.35
2022-08-07T05:14:55.860Z,73.37
2022-08-07T05:15:13.097Z,73.12
2022-08-07T05:16:13.066Z,72.70
2022-08-07T05:17:12.224Z,72.56
2022-08-07T05:18:13.051Z,72.58
2022-08-07T05:19:12.041Z,72.15
2022-08-07T05:20:12.020Z,71.74
2022-08-07T05:21:12.011Z,71.19
2022-08-07T05:22:12.004Z,70.93
2022-08-07T05:23:16.203Z,70.66
2022-08-07T05:24:11.984Z,69.72
2022-08-07T05:25:25.769Z,69.41
2022-08-07T05:26:18.863Z,69.12
2022-08-07T05:28:00.758Z,68.88
2022-08-07T05:28:19.872Z,68.32
2022-08-07T05:29:12.923Z,67.74
2022-08-07T05:30:11.902Z,67.19
2022-08-07T05:31:11.894Z,67.23
2022-08-07T05:32:11.885Z,66.89
2022-08-07T05:33:11.913Z,66.30
2022-08-07T05:34:12.232Z,65.88
2022-08-07T05:35:11.865Z,65.47
2022-08-07T05:36:12.204Z,64.81
2022-08-07T05:37:12.824Z,64.30
2022-08-07T05:38:11.817Z,63.99
2022-08-07T05:40:05.054Z,63.41
2022-08-07T05:40:18.769Z,62.93
2022-08-07T05:41:15.622Z,62.40
2022-08-07T05:42:12.951Z,61.96
2022-08-07T05:43:11.788Z,61.85
2022-08-07T05:44:12.921Z,61.31
2022-08-07T05:45:14.328Z,61.01
2022-08-07T05:46:12.724Z,60.87
2022-08-07T05:47:18.315Z,60.75
2022-08-07T05:48:12.704Z,60.49
2022-08-07T05:49:12.954Z,60.45
2022-08-07T05:50:11.696Z,60.09
2022-08-07T05:51:11.667Z,59.63
2022-08-07T05:52:11.993Z,59.32
2022-08-07T05:54:12.532Z,58.71
2022-08-07T05:54:31.340Z,58.40
2022-08-07T05:55:12.629Z,57.97
2022-08-07T05:56:12.476Z,57.66
2022-08-07T05:57:11.598Z,57.38
2022-08-07T05:58:11.601Z,56.81
2022-08-07T05:59:11.572Z,56.71
2022-08-07T06:00:16.283Z,55.82
2022-08-07T06:01:12.541Z,55.88
2022-08-07T06:02:11.581Z,55.77
2022-08-07T06:03:11.532Z,55.72
2022-08-07T06:04:11.516Z,54.70
2022-08-07T06:05:15.567Z,54.48
2022-08-07T06:06:11.490Z,53.81
2022-08-07T06:07:22.766Z,53.54
2022-08-07T06:08:29.424Z,53.28
2022-08-07T06:09:12.450Z,53.28
2022-08-07T06:10:15.329Z,52.83
2022-08-07T06:11:11.444Z,51.97
2022-08-07T06:12:11.459Z,52.01
2022-08-07T06:13:13.326Z,51.92
2022-08-07T06:14:20.822Z,51.18
2022-08-07T06:15:15.992Z,50.82
2022-08-07T06:16:13.446Z,51.15
2022-08-07T06:17:11.364Z,50.58
2022-08-07T06:18:12.165Z,50.58
2022-08-07T06:19:17.847Z,50.58
2022-08-07T06:20:25.482Z,50.00
2022-08-07T06:22:16.918Z,49.59
2022-08-07T06:22:23.153Z,49.67
2022-08-07T06:23:45.983Z,49.76
2022-08-07T06:24:52.221Z,49.72
2022-08-07T06:25:12.260Z,49.40
2022-08-07T06:26:11.280Z,49.37
2022-08-07T06:27:11.252Z,49.22
2022-08-07T06:28:14.154Z,48.69
2022-08-07T06:29:11.224Z,48.04
2022-08-07T06:30:24.079Z,48.06
2022-08-07T06:31:12.225Z,48.01
2022-08-07T06:32:11.187Z,48.02
2022-08-07T06:33:16.092Z,48.12
2022-08-07T06:34:12.166Z,47.70
2022-08-07T06:35:18.010Z,47.97
2022-08-07T06:36:13.767Z,47.76
2022-08-07T06:37:11.350Z,47.60
2022-08-07T06:38:20.064Z,47.72
2022-08-07T06:40:13.081Z,48.09
2022-08-07T06:40:16.703Z,48.17
2022-08-07T06:41:12.940Z,48.30
2022-08-07T06:42:11.144Z,48.22
2022-08-07T06:43:21.391Z,48.01
2022-08-07T06:44:12.056Z,47.72
2022-08-07T06:45:11.382Z,47.06
2022-08-07T06:46:11.557Z,47.31
2022-08-07T06:47:15.196Z,47.12
2022-08-07T06:48:11.338Z,47.19
2022-08-07T06:49:10.990Z,47.02
2022-08-07T06:50:11.044Z,47.21
2022-08-07T06:51:10.968Z,47.10
2022-08-07T06:52:10.982Z,46.80
2022-08-07T06:53:18.628Z,46.76
2022-08-07T06:55:31.764Z,46.39
2022-08-07T06:55:34.502Z,46.31
2022-08-07T06:56:15.343Z,45.71
2022-08-07T06:57:10.903Z,45.84
2022-08-07T06:58:10.908Z,45.87
2022-08-07T07:00:13.647Z,45.78
2022-08-07T07:00:18.190Z,45.61
2022-08-07T07:01:11.902Z,44.70
2022-08-07T07:02:11.350Z,44.22
2022-08-07T07:03:14.310Z,44.46
2022-08-07T07:04:32.546Z,44.95
2022-08-07T07:05:12.705Z,44.98
2022-08-07T07:06:11.191Z,45.52
2022-08-07T07:07:19.264Z,45.50
2022-08-07T07:08:12.551Z,44.99
2022-08-07T07:09:11.776Z,44.27
2022-08-07T07:10:11.751Z,43.75
2022-08-07T07:11:14.051Z,43.96
2022-08-07T07:12:19.245Z,43.92
2022-08-07T07:13:11.715Z,42.62
2022-08-07T07:14:10.744Z,42.54
2022-08-07T07:15:23.627Z,42.58
2022-08-07T07:16:11.686Z,42.60
2022-08-07T07:17:10.699Z,42.59
2022-08-07T07:18:11.666Z,43.03
2022-08-07T07:19:34.054Z,42.84
2022-08-07T07:20:11.637Z,42.74
2022-08-07T07:21:13.641Z,42.54
2022-08-07T07:22:36.280Z,42.51
2022-08-07T07:24:10.800Z,42.82
2022-08-07T07:24:12.981Z,43.29
2022-08-07T07:26:31.126Z,42.93
2022-08-07T07:26:34.882Z,43.55
2022-08-07T07:27:11.562Z,43.58
2022-08-07T07:28:41.948Z,43.68
2022-08-07T07:29:40.657Z,43.41
2022-08-07T07:30:12.124Z,44.11
2022-08-07T07:31:10.510Z,44.40
2022-08-07T07:32:10.506Z,44.47
2022-08-07T07:33:11.606Z,44.16
2022-08-07T07:34:10.478Z,44.67
2022-08-07T07:35:11.503Z,45.01
2022-08-07T07:36:13.514Z,45.37
2022-08-07T07:37:22.022Z,44.39
2022-08-07T07:38:11.518Z,44.15
2022-08-07T07:39:10.585Z,44.67
2022-08-07T07:40:14.972Z,45.54
2022-08-07T07:41:11.515Z,45.47
2022-08-07T07:42:14.021Z,45.39
2022-08-07T07:43:15.255Z,45.00
2022-08-07T07:44:17.969Z,44.57
2022-08-07T07:45:11.408Z,44.99
2022-08-07T07:46:38.539Z,45.36
2022-08-07T07:47:15.724Z,45.00
2022-08-07T07:48:11.411Z,44.78
2022-08-07T07:50:34.442Z,43.88
2022-08-07T07:50:35.717Z,44.19
2022-08-07T07:51:11.288Z,44.61
2022-08-07T07:52:10.304Z,45.02
2022-08-07T07:53:20.535Z,45.20
2022-08-07T07:54:11.263Z,44.32
2022-08-07T07:55:10.895Z,43.63
2022-08-07T07:56:10.238Z,43.54
2022-08-07T07:57:10.216Z,43.96
2022-08-07T07:58:10.230Z,43.27
2022-08-07T07:59:10.196Z,43.01
2022-08-07T08:00:10.197Z,42.80
2022-08-07T08:02:03.206Z,42.92
2022-08-07T08:02:11.251Z,43.26
2022-08-07T08:03:16.339Z,43.94
2022-08-07T08:04:11.967Z,43.56
2022-08-07T08:05:11.350Z,43.59
2022-08-07T08:06:13.049Z,43.41
2022-08-07T08:07:10.120Z,43.39
2022-08-07T08:08:10.107Z,43.61
2022-08-07T08:09:11.111Z,43.62
2022-08-07T08:10:10.109Z,43.83
2022-08-07T08:11:16.538Z,43.68
2022-08-07T08:12:11.053Z,44.37
2022-08-07T08:13:10.313Z,44.00
2022-08-07T08:14:11.202Z,43.05
2022-08-07T08:15:10.057Z,43.79
2022-08-07T08:16:12.742Z,43.82
2022-08-07T08:18:18.061Z,43.59
2022-08-07T08:18:36.531Z,43.01
2022-08-07T08:20:15.720Z,43.30
2022-08-07T08:20:22.415Z,43.25
2022-08-07T08:21:10.954Z,43.62
2022-08-07T08:22:10.644Z,43.26
2022-08-07T08:23:09.937Z,43.56
2022-08-07T08:24:18.575Z,43.35
2022-08-07T08:25:25.131Z,43.59
2022-08-07T08:26:10.896Z,43.37
2022-08-07T08:27:09.882Z,43.30
2022-08-07T08:28:09.879Z,43.59
2022-08-07T08:29:09.856Z,43.17
2022-08-07T08:30:11.404Z,41.15
2022-08-07T08:31:16.031Z,42.30
2022-08-07T08:32:18.567Z,42.09
2022-08-07T08:33:16.113Z,41.86
2022-08-07T08:34:12.449Z,42.65
2022-08-07T08:35:10.814Z,41.01
2022-08-07T08:36:09.794Z,39.97
2022-08-07T08:38:01.684Z,40.83
2022-08-07T08:38:10.913Z,40.67
2022-08-07T08:39:09.768Z,40.39
2022-08-07T08:40:12.327Z,39.53
2022-08-07T08:41:10.718Z,39.01
2022-08-07T08:42:09.712Z,38.73
2022-08-07T08:43:09.726Z,40.20
2022-08-07T08:44:09.689Z,39.62
2022-08-07T08:45:13.076Z,39.93
2022-08-07T08:46:09.685Z,40.18
2022-08-07T08:47:10.081Z,40.29
2022-08-07T08:48:10.752Z,40.81
2022-08-07T08:49:09.795Z,40.35
2022-08-07T08:50:09.611Z,40.30
2022-08-07T08:51:14.774Z,40.80
2022-08-07T08:52:13.909Z,40.95
2022-08-07T08:53:09.585Z,40.80
2022-08-07T08:54:09.574Z,41.06
2022-08-07T08:55:09.551Z,41.01
2022-08-07T08:56:10.544Z,41.09
2022-08-07T08:57:09.524Z,41.20
2022-08-07T08:58:13.299Z,41.24
2022-08-07T08:59:13.513Z,40.84
2022-08-07T09:00:10.504Z,40.84
2022-08-07T09:01:15.391Z,39.98
2022-08-07T09:02:10.511Z,40.38
2022-08-07T09:03:09.461Z,39.68
2022-08-07T09:04:11.013Z,39.00
2022-08-07T09:05:09.436Z,39.03
2022-08-07T09:06:11.461Z,39.12
2022-08-07T09:07:11.317Z,38.85
2022-08-07T09:08:09.391Z,39.34
2022-08-07T09:09:20.766Z,39.76
2022-08-07T09:10:10.393Z,39.39
2022-08-07T09:11:09.366Z,39.24
2022-08-07T09:12:19.992Z,39.91
2022-08-07T09:13:10.337Z,39.24
2022-08-07T09:14:09.599Z,38.72
2022-08-07T09:16:22.612Z,37.61
2022-08-07T09:16:25.763Z,37.94
2022-08-07T09:17:10.291Z,38.07
2022-08-07T09:18:15.786Z,38.13
2022-08-07T09:19:52.942Z,38.51
2022-08-07T09:20:34.962Z,38.45
2022-08-07T09:21:13.775Z,38.93
2022-08-07T09:22:37.058Z,38.61
2022-08-07T09:24:31.969Z,38.32
2022-08-07T09:24:33.628Z,39.07
2022-08-07T09:25:17.301Z,39.45
2022-08-07T09:26:10.212Z,36.81
2022-08-07T09:27:13.407Z,36.26
2022-08-07T09:30:01.206Z,36.98
2022-08-07T09:30:01.792Z,36.71
2022-08-07T09:30:10.194Z,37.22
2022-08-07T09:31:09.141Z,36.79
2022-08-07T09:32:17.175Z,37.65
2022-08-07T09:33:16.645Z,37.67
2022-08-07T09:34:10.092Z,37.10
2022-08-07T09:36:04.016Z,36.61
2022-08-07T09:36:10.072Z,36.40
2022-08-07T09:37:09.098Z,36.54
2022-08-07T09:38:10.307Z,36.81
2022-08-07T09:39:18.069Z,36.83
2022-08-07T09:40:10.072Z,36.09
2022-08-07T09:41:09.035Z,36.51
2022-08-07T09:42:09.284Z,35.50
2022-08-07T09:43:09.013Z,35.29
2022-08-07T09:44:19.234Z,35.67
2022-08-07T09:47:24.220Z,35.77
2022-08-07T09:47:42.457Z,36.08
2022-08-07T09:47:55.261Z,35.46
2022-08-07T09:48:11.616Z,35.43
2022-08-07T09:50:02.605Z,35.64
2022-08-07T09:50:18.930Z,35.72
2022-08-07T09:51:26.033Z,35.43
2022-08-07T09:52:33.641Z,35.81
2022-08-07T09:53:09.907Z,36.24
2022-08-07T09:54:11.495Z,36.15
2022-08-07T09:55:28.726Z,35.20
2022-08-07T09:56:09.846Z,34.87
2022-08-07T09:57:12.941Z,35.10
2022-08-07T09:58:09.820Z,34.67
2022-08-07T09:59:14.063Z,34.22
2022-08-07T10:00:14.468Z,33.92
2022-08-07T10:01:23.276Z,34.21
2022-08-07T10:02:09.781Z,34.18
2022-08-07T10:04:05.809Z,34.05
2022-08-07T10:04:14.843Z,33.77
2022-08-07T10:05:12.550Z,34.14
2022-08-07T10:06:12.275Z,34.21
2022-08-07T10:07:24.605Z,33.37
2022-08-07T10:08:09.731Z,33.10
2022-08-07T10:09:08.752Z,33.35
2022-08-07T10:10:11.961Z,32.97
2022-08-07T10:11:17.255Z,32.49
2022-08-07T10:12:18.099Z,31.84
2022-08-07T10:13:10.960Z,31.30
2022-08-07T10:14:11.278Z,32.16
2022-08-07T10:15:08.629Z,32.31
2022-08-07T10:16:09.753Z,31.74
2022-08-07T10:17:14.065Z,31.21
2022-08-07T10:18:09.592Z,30.98
2022-08-07T10:19:11.355Z,30.74
2022-08-07T10:20:12.889Z,30.46
2022-08-07T10:21:20.031Z,30.91
2022-08-07T10:22:16.282Z,30.85
2022-08-07T10:23:09.723Z,30.93
2022-08-07T10:24:09.959Z,30.80
2022-08-07T10:25:08.537Z,30.97
2022-08-07T10:26:08.522Z,31.96
2022-08-07T10:27:10.471Z,32.56
2022-08-07T10:28:08.482Z,31.21
2022-08-07T10:29:08.467Z,31.04
2022-08-07T10:30:12.435Z,31.11
2022-08-07T10:31:11.035Z,31.68
2022-08-07T10:32:36.901Z,31.72
2022-08-07T10:33:09.428Z,31.54
2022-08-07T10:34:15.059Z,32.14
2022-08-07T10:35:14.876Z,31.83
2022-08-07T10:36:11.292Z,31.10
2022-08-07T10:37:12.309Z,31.03
2022-08-07T10:38:20.938Z,31.14
2022-08-07T10:39:09.480Z,32.09
2022-08-07T10:40:09.178Z,32.47
2022-08-07T10:41:08.352Z,32.30
2022-08-07T10:42:09.767Z,31.87
2022-08-07T10:43:09.321Z,31.56
2022-08-07T10:44:08.299Z,31.72
2022-08-07T10:45:08.301Z,31.53
2022-08-07T10:46:08.312Z,31.59
2022-08-07T10:47:11.904Z,31.97
2022-08-07T10:48:09.721Z,32.40
2022-08-07T10:49:08.259Z,31.75
2022-08-07T10:50:08.232Z,32.06
2022-08-07T10:51:16.825Z,31.89
2022-08-07T10:52:13.773Z,31.58
2022-08-07T10:53:09.136Z,31.43
2022-08-07T10:54:08.219Z,31.50
2022-08-07T10:55:26.971Z,31.63
2022-08-07T10:56:09.192Z,32.01
2022-08-07T10:57:09.401Z,31.67
2022-08-07T10:58:08.144Z,31.22
2022-08-07T10:59:08.132Z,31.04
2022-08-07T11:00:08.888Z,31.03
2022-08-07T11:01:11.680Z,31.46
2022-08-07T11:02:27.219Z,30.96
2022-08-07T11:03:11.344Z,30.59
2022-08-07T11:04:23.326Z,30.57
2022-08-07T11:05:10.755Z,31.10
2022-08-07T11:06:08.069Z,31.35
2022-08-07T11:07:14.839Z,30.95
2022-08-07T11:08:09.304Z,31.18
2022-08-07T11:09:11.540Z,30.84
2022-08-07T11:10:10.855Z,30.18
2022-08-07T11:11:07.999Z,30.47
2022-08-07T11:12:08.008Z,31.22
2022-08-07T11:14:41.764Z,31.12
2022-08-07T11:14:44.756Z,30.94
2022-08-07T11:15:14.722Z,31.40
2022-08-07T11:16:08.937Z,31.24
2022-08-07T11:17:09.031Z,31.32
2022-08-07T11:18:09.558Z,31.46
2022-08-07T11:19:07.919Z,31.58
2022-08-07T11:20:07.905Z,30.92
2022-08-07T11:21:07.893Z,31.18
2022-08-07T11:22:18.742Z,31.29
2022-08-07T11:23:09.251Z,30.46
2022-08-07T11:24:08.493Z,30.63
2022-08-07T11:25:07.852Z,30.62
2022-08-07T11:26:07.840Z,31.17
2022-08-07T11:27:07.820Z,31.85
2022-08-07T11:28:09.040Z,31.23
2022-08-07T11:29:13.105Z,31.50
2022-08-07T11:30:18.709Z,31.24
2022-08-07T11:31:11.452Z,31.33
2022-08-07T11:32:07.750Z,30.97
2022-08-07T11:33:08.143Z,30.96
2022-08-07T11:34:10.263Z,31.47
2022-08-07T11:35:09.377Z,31.54
2022-08-07T11:36:10.099Z,31.69
2022-08-07T11:37:11.789Z,31.03
2022-08-07T11:38:10.142Z,31.05
2022-08-07T11:39:07.761Z,30.57
2022-08-07T11:40:07.753Z,31.25
2022-08-07T11:41:07.667Z,31.51
2022-08-07T11:42:07.647Z,31.77
2022-08-07T11:43:08.634Z,31.50
2022-08-07T11:44:12.270Z,31.69
2022-08-07T11:45:07.616Z,31.79
2022-08-07T11:46:07.595Z,31.93
2022-08-07T11:47:07.597Z,31.04
2022-08-07T11:48:13.892Z,31.33
2022-08-07T11:49:50.717Z,31.61
2022-08-07T11:50:30.453Z,31.59
2022-08-07T11:51:09.030Z,30.75
2022-08-07T11:52:07.605Z,31.18
2022-08-07T11:53:07.525Z,31.79
2022-08-07T11:54:10.105Z,31.70
2022-08-07T11:55:13.117Z,31.46
2022-08-07T11:56:25.688Z,31.24
2022-08-07T11:57:12.808Z,31.59
2022-08-07T11:58:16.313Z,32.69
2022-08-07T12:00:08.086Z,32.24
2022-08-07T12:00:18.761Z,31.99
2022-08-07T12:01:08.427Z,31.31
2022-08-07T12:02:17.809Z,31.67
2022-08-07T12:03:08.467Z,31.56
2022-08-07T12:04:08.405Z,31.11
2022-08-07T12:05:15.025Z,31.27
2022-08-07T12:06:36.442Z,31.15
2022-08-07T12:07:20.360Z,31.28
2022-08-07T12:08:08.338Z,30.68
2022-08-07T12:09:08.341Z,30.39
2022-08-07T12:10:08.444Z,30.62
2022-08-07T12:11:20.233Z,30.55
2022-08-07T12:12:10.937Z,30.76
2022-08-07T12:13:11.665Z,30.54
2022-08-07T12:14:08.272Z,30.60
2022-08-07T12:15:08.090Z,30.61
2022-08-07T12:16:09.178Z,31.22
2022-08-07T12:17:07.248Z,30.84
2022-08-07T12:18:08.221Z,30.49
2022-08-07T12:19:07.214Z,31.11
2022-08-07T12:20:19.991Z,31.09
2022-08-07T12:21:08.185Z,31.02
2022-08-07T12:22:38.654Z,30.81
2022-08-07T12:23:09.237Z,30.66
2022-08-07T12:24:37.332Z,30.48
2022-08-07T12:25:08.146Z,30.82
2022-08-07T12:26:29.042Z,30.77
2022-08-07T12:27:13.215Z,31.20
2022-08-07T12:28:09.303Z,31.21
2022-08-07T12:29:07.104Z,30.80
2022-08-07T12:30:07.421Z,30.69
2022-08-07T12:31:09.291Z,30.31
2022-08-07T12:32:12.445Z,30.95
2022-08-07T12:33:18.816Z,30.77
2022-08-07T12:34:11.041Z,31.04
2022-08-07T12:35:07.373Z,30.90
2022-08-07T12:36:07.018Z,30.39
2022-08-07T12:37:08.797Z,30.51
2022-08-07T12:38:11.558Z,30.37
2022-08-07T12:39:41.102Z,30.68
2022-08-07T12:40:23.972Z,31.02
2022-08-07T12:41:09.914Z,31.35
2022-08-07T12:42:07.051Z,31.38
2022-08-07T12:43:09.911Z,31.23
2022-08-07T12:44:10.428Z,31.38
2022-08-07T12:45:07.993Z,31.17
2022-08-07T12:46:06.898Z,31.09
2022-08-07T12:47:06.889Z,31.10
2022-08-07T12:48:13.158Z,30.90
2022-08-07T12:49:09.897Z,30.38
2022-08-07T12:50:38.245Z,30.54
2022-08-07T12:51:13.190Z,30.60
2022-08-07T12:52:13.785Z,30.94